Time;durP1;ratioP1;P1;durP2;ratioP2;P2;SDS_P1;SDS_P2;PMS_P1;PMS_P2;Temp;Humidity;BMP_temperature;BMP_pressure;BME280_temperature;BME280_humidity;BME280_pressure;Samples;Min_cycle;Max_cycle;Signal;HPM_P1;HPM_P2
2022/09/02 00:01:24;;;;;;;3.73;1.43;;;;;;;12.59;97.18;101738.34;5025452;28;20456;-77
2022/09/02 00:03:55;;;;;;;4.67;1.50;;;;;;;12.59;97.18;101738.34;5023761;28;20440;-77
2022/09/02 00:06:21;;;;;;;4.07;1.40;;;;;;;12.56;97.06;101730.75;5023146;28;20502;-77
2022/09/02 00:08:49;;;;;;;4.70;1.50;;;;;;;12.47;97.75;101724.31;5022855;28;20452;-77
2022/09/02 00:11:20;;;;;;;3.80;1.40;;;;;;;12.49;97.56;101722.94;5022587;28;20964;-77
2022/09/02 00:13:47;;;;;;;3.80;1.40;;;;;;;12.48;97.73;101728.66;5023477;28;20462;-78
2022/09/02 00:16:14;;;;;;;3.53;1.30;;;;;;;12.50;97.52;101726.47;5022047;28;20470;-77
2022/09/02 00:18:41;;;;;;;3.37;1.20;;;;;;;12.55;96.84;101726.41;5022546;28;20456;-78
2022/09/02 00:21:12;;;;;;;3.10;1.13;;;;;;;12.59;96.66;101719.31;5023459;28;20447;-77
2022/09/02 00:23:39;;;;;;;4.00;1.33;;;;;;;12.59;96.74;101725.56;5024842;28;20440;-77
2022/09/02 00:26:08;;;;;;;3.10;1.07;;;;;;;12.54;96.79;101712.03;5023456;28;20518;-78
2022/09/02 00:28:34;;;;;;;3.80;1.27;;;;;;;12.57;96.67;101721.50;5022594;28;20870;-77
2022/09/02 00:31:01;;;;;;;4.50;1.30;;;;;;;12.59;96.45;101714.69;5023694;28;20475;-78
2022/09/02 00:33:30;;;;;;;5.57;1.30;;;;;;;12.47;96.95;101713.44;5023514;28;20450;-77
2022/09/02 00:35:59;;;;;;;3.93;1.20;;;;;;;12.46;97.19;101709.13;5022855;28;20459;-77
2022/09/02 00:38:25;;;;;;;3.93;1.40;;;;;;;12.45;97.40;101711.03;5022148;28;20527;-77
2022/09/02 00:40:52;;;;;;;4.00;1.50;;;;;;;12.38;97.77;101714.06;5021380;28;20444;-77
2022/09/02 00:43:37;;;;;;;4.03;1.70;;;;;;;12.38;98.04;101711.34;5017425;28;20448;-77
2022/09/02 00:46:04;;;;;;;7.97;1.33;;;;;;;12.40;97.86;101719.22;5016333;28;20487;-77
2022/09/02 00:48:31;;;;;;;4.30;1.43;;;;;;;12.45;97.33;101712.94;5017714;28;20452;-76
2022/09/02 00:50:58;;;;;;;3.67;1.40;;;;;;;12.48;97.22;101709.63;5018886;28;20484;-77
2022/09/02 00:53:25;;;;;;;3.00;1.00;;;;;;;12.48;97.33;101706.91;5018057;28;20448;-77
2022/09/02 00:55:52;;;;;;;3.90;1.27;;;;;;;12.45;98.14;101710.22;5018458;28;20449;-76
2022/09/02 00:58:23;;;;;;;3.43;1.23;;;;;;;12.56;97.49;101704.38;5018580;28;20476;-77
2022/09/02 01:00:56;;;;;;;4.07;1.33;;;;;;;12.48;97.85;101707.72;5018707;28;20448;-77
2022/09/02 01:03:25;;;;;;;5.67;1.83;;;;;;;12.47;98.55;101708.00;5018211;28;20444;-77
2022/09/02 01:05:54;;;;;;;3.50;1.30;;;;;;;12.48;98.66;101706.91;5017995;28;20514;-77
2022/09/02 01:08:24;;;;;;;3.07;1.00;;;;;;;12.54;98.53;101703.06;5018389;28;20471;-77
2022/09/02 01:10:53;;;;;;;4.13;1.50;;;;;;;12.59;98.31;101692.94;5019089;28;20542;-77
2022/09/02 01:13:23;;;;;;;3.73;1.40;;;;;;;12.49;99.49;101697.69;5019296;28;20455;-76
2022/09/02 01:15:54;;;;;;;4.70;1.20;;;;;;;12.44;100.00;101700.44;5018981;28;20449;-77
2022/09/02 01:18:29;;;;;;;3.73;1.27;;;;;;;12.44;99.88;101697.72;5017663;28;20468;-77
2022/09/02 01:20:58;;;;;;;4.00;1.60;;;;;;;12.43;100.00;101694.19;5018084;28;20444;-77
2022/09/02 01:23:27;;;;;;;3.77;1.40;;;;;;;12.53;100.00;101699.53;5018552;28;20445;-76
2022/09/02 01:25:54;;;;;;;3.33;1.13;;;;;;;12.61;99.66;101700.81;5014480;28;20444;-76
2022/09/02 01:28:22;;;;;;;3.90;1.43;;;;;;;12.65;99.77;101690.97;5015002;28;20808;-76
2022/09/02 01:30:52;;;;;;;3.40;1.17;;;;;;;12.72;99.49;101685.22;5014698;28;20486;-76
2022/09/02 01:33:21;;;;;;;4.33;1.60;;;;;;;12.75;99.01;101690.91;5014898;28;20482;-76
2022/09/02 01:35:48;;;;;;;5.63;1.27;;;;;;;12.77;99.60;101690.59;5014820;28;20448;-76
2022/09/02 01:38:15;;;;;;;3.60;1.20;;;;;;;12.79;99.24;101682.94;5016191;28;20520;-77
2022/09/02 01:40:43;;;;;;;3.73;1.27;;;;;;;12.76;100.00;101692.50;5016118;28;20448;-77
2022/09/02 01:43:12;;;;;;;3.60;1.10;;;;;;;12.85;99.45;101685.34;5014696;28;20979;-72
2022/09/02 01:45:41;;;;;;;3.60;1.53;;;;;;;12.88;99.32;101692.94;5014330;28;20531;-74
2022/09/02 01:48:09;;;;;;;3.30;1.10;;;;;;;12.94;99.02;101687.44;5014726;28;20827;-77
2022/09/02 01:50:36;;;;;;;3.77;1.30;;;;;;;13.03;98.88;101697.38;5014963;28;20511;-78
2022/09/02 01:53:03;;;;;;;3.83;1.50;;;;;;;12.99;99.48;101692.81;5015549;28;20502;-78
2022/09/02 01:55:30;;;;;;;4.33;1.40;;;;;;;13.01;99.64;101687.88;5015717;28;20451;-77
2022/09/02 01:57:57;;;;;;;3.80;1.53;;;;;;;13.09;99.74;101684.50;5015635;28;20550;-78
2022/09/02 02:00:25;;;;;;;3.37;1.10;;;;;;;13.03;99.94;101688.41;5015902;28;20805;-78
2022/09/02 02:02:51;;;;;;;3.57;1.27;;;;;;;13.08;99.61;101688.34;5017439;28;20459;-78
2022/09/02 02:05:19;;;;;;;3.87;1.30;;;;;;;13.11;99.90;101677.69;5016903;28;20523;-78
2022/09/02 02:07:45;;;;;;;3.97;1.40;;;;;;;13.20;99.95;101686.03;5016359;28;20475;-77
2022/09/02 02:10:16;;;;;;;3.93;1.23;;;;;;;13.29;99.38;101678.06;5016210;28;20519;-78
2022/09/02 02:12:43;;;;;;;4.43;1.60;;;;;;;13.31;99.50;101675.84;5015972;28;20479;-78
2022/09/02 02:15:13;;;;;;;4.90;1.50;;;;;;;13.32;99.49;101678.25;5015994;28;20456;-78
2022/09/02 02:17:40;;;;;;;6.10;1.20;;;;;;;13.40;99.13;101679.50;5015530;28;21032;-78
2022/09/02 02:20:09;;;;;;;3.40;0.83;;;;;;;13.41;99.07;101674.88;5015599;28;20938;-78
2022/09/02 02:22:36;;;;;;;4.60;1.37;;;;;;;13.46;98.74;101669.38;5015523;28;20812;-76
2022/09/02 02:25:03;;;;;;;4.23;1.57;;;;;;;13.59;98.12;101676.78;5013871;28;20440;-74
2022/09/02 02:27:30;;;;;;;2.93;0.83;;;;;;;13.67;97.72;101676.13;5013714;28;20483;-74
2022/09/02 02:29:57;;;;;;;5.53;1.10;;;;;;;13.73;96.75;101674.97;5013784;28;20446;-74
2022/09/02 02:32:25;;;;;;;3.63;1.23;;;;;;;13.75;96.55;101664.59;5013501;28;20498;-73
2022/09/02 02:34:53;;;;;;;3.07;0.90;;;;;;;13.79;96.42;101670.25;5013813;28;20478;-74
2022/09/02 02:37:19;;;;;;;4.00;1.20;;;;;;;13.79;96.06;101670.25;5013399;28;20487;-74
2022/09/02 02:39:46;;;;;;;4.07;1.27;;;;;;;13.74;96.46;101670.34;5013099;28;20961;-73
2022/09/02 02:42:13;;;;;;;10.93;1.87;;;;;;;13.69;96.43;101668.50;5013587;28;20942;-74
2022/09/02 02:44:40;;;;;;;4.23;1.30;;;;;;;13.63;96.71;101677.81;5013573;28;20452;-73
2022/09/02 02:47:07;;;;;;;7.70;1.37;;;;;;;13.64;96.55;101668.59;5013450;28;21048;-73
2022/09/02 02:49:38;;;;;;;3.53;1.30;;;;;;;13.63;96.43;101670.50;5013562;28;20452;-73
2022/09/02 02:52:05;;;;;;;3.53;1.13;;;;;;;13.65;96.00;101670.19;5013316;28;20487;-73
2022/09/02 02:54:31;;;;;;;4.30;1.50;;;;;;;13.59;96.07;101665.91;5013422;28;20448;-73
2022/09/02 02:56:58;;;;;;;3.73;1.37;;;;;;;13.53;96.42;101665.19;5013396;28;20555;-73
2022/09/02 02:59:25;;;;;;;4.23;1.07;;;;;;;13.53;95.90;101664.38;5013551;28;20449;-74
2022/09/02 03:01:52;;;;;;;4.90;1.17;;;;;;;13.53;96.15;101664.38;5013433;28;20452;-74
2022/09/02 03:04:19;;;;;;;4.20;1.27;;;;;;;13.45;96.71;101660.38;5013557;28;20488;-74
2022/09/02 03:06:46;;;;;;;7.13;1.40;;;;;;;13.46;95.95;101666.63;5013235;28;20527;-73
2022/09/02 03:09:13;;;;;;;3.30;1.00;;;;;;;13.42;95.86;101666.44;5013389;28;20448;-74
2022/09/02 03:11:40;;;;;;;4.73;1.27;;;;;;;13.36;96.22;101667.59;5013818;28;21057;-78
2022/09/02 03:14:07;;;;;;;4.23;1.30;;;;;;;13.29;96.81;101669.88;5016715;28;20448;-78
2022/09/02 03:16:34;;;;;;;11.70;1.50;;;;;;;13.25;96.93;101666.13;5016387;28;20897;-78
2022/09/02 03:19:01;;;;;;;3.40;1.00;;;;;;;13.14;96.88;101665.41;5016949;28;20949;-78
2022/09/02 03:21:28;;;;;;;3.57;1.33;;;;;;;13.07;96.78;101663.06;5016457;28;20458;-78
2022/09/02 03:23:56;;;;;;;3.90;1.17;;;;;;;13.01;97.40;101658.75;5016435;28;20828;-77
2022/09/02 03:26:25;;;;;;;3.10;0.93;;;;;;;12.95;97.20;101659.13;5015828;28;20490;-77
2022/09/02 03:28:55;;;;;;;4.13;1.43;;;;;;;12.96;97.14;101661.53;5014710;28;20608;-78
2022/09/02 03:31:24;;;;;;;3.47;1.10;;;;;;;12.85;97.48;101658.16;5015308;28;20575;-78
2022/09/02 03:33:50;;;;;;;3.33;1.23;;;;;;;12.86;97.62;101656.22;5015315;28;20448;-78
2022/09/02 03:36:22;;;;;;;3.70;1.10;;;;;;;12.73;98.13;101660.44;5015728;28;20475;-78
2022/09/02 03:38:49;;;;;;;3.53;1.43;;;;;;;12.57;98.59;101650.84;5015579;28;20444;-78
2022/09/02 03:41:17;;;;;;;3.90;1.43;;;;;;;12.58;98.79;101663.34;5015768;28;20539;-78
2022/09/02 03:43:44;;;;;;;4.57;1.40;;;;;;;12.56;98.76;101649.22;5016040;28;20448;-79
2022/09/02 03:46:12;;;;;;;3.13;0.93;;;;;;;12.62;98.98;101650.81;5016592;28;20466;-78
2022/09/02 03:48:39;;;;;;;3.77;1.40;;;;;;;12.58;98.79;101650.56;5014349;28;20448;-76
2022/09/02 03:51:06;;;;;;;5.47;1.50;;;;;;;12.56;99.24;101655.47;5018602;28;20484;-77
2022/09/02 03:53:33;;;;;;;3.27;1.27;;;;;;;12.59;99.24;101659.53;5018741;28;20954;-77
2022/09/02 03:56:05;;;;;;;3.90;1.33;;;;;;;12.62;98.99;101658.97;5018798;28;20472;-77
2022/09/02 03:58:35;;;;;;;4.13;1.40;;;;;;;12.51;99.20;101655.53;5018955;28;20519;-77
2022/09/02 04:01:02;;;;;;;3.80;1.40;;;;;;;12.51;99.64;101655.53;5018359;28;20989;-77
2022/09/02 04:03:28;;;;;;;4.30;1.40;;;;;;;12.54;98.73;101659.59;5018582;28;20436;-77
2022/09/02 04:05:55;;;;;;;3.80;1.00;;;;;;;12.46;98.49;101649.34;5018247;28;20444;-76
2022/09/02 04:08:22;;;;;;;4.17;1.40;;;;;;;12.46;98.49;101649.34;5018625;28;20452;-76
2022/09/02 04:10:49;;;;;;;3.70;1.20;;;;;;;12.35;98.73;101654.88;5018375;28;20543;-77
2022/09/02 04:13:16;;;;;;;5.33;1.77;;;;;;;12.32;98.84;101657.34;5019490;28;20454;-77
2022/09/02 04:15:47;;;;;;;6.50;1.60;;;;;;;12.27;98.80;101662.84;5021685;28;20479;-77
2022/09/02 04:18:16;;;;;;;3.53;1.43;;;;;;;12.31;98.61;101664.69;5021940;28;20444;-76
2022/09/02 04:20:43;;;;;;;3.00;0.90;;;;;;;12.27;98.38;101665.56;5017260;28;20459;-76
2022/09/02 04:23:10;;;;;;;4.70;1.20;;;;;;;12.26;99.55;101667.47;5017250;28;20535;-76
2022/09/02 04:25:41;;;;;;;4.70;1.73;;;;;;;12.30;99.33;101662.25;5017167;28;20471;-77
2022/09/02 04:28:08;;;;;;;3.50;1.30;;;;;;;12.35;99.54;101660.31;5017584;28;20486;-77
2022/09/02 04:30:34;;;;;;;6.17;1.43;;;;;;;12.32;99.91;101660.06;5016994;28;20801;-76
2022/09/02 04:33:02;;;;;;;3.70;1.10;;;;;;;12.38;100.00;101664.34;5018984;28;20911;-77
2022/09/02 04:35:29;;;;;;;3.87;1.17;;;;;;;12.44;100.00;101656.94;5020533;28;20456;-77
2022/09/02 04:37:56;;;;;;;5.83;1.63;;;;;;;12.46;100.00;101666.44;5019014;28;20474;-77
2022/09/02 04:40:22;;;;;;;8.40;1.83;;;;;;;12.49;100.00;101655.00;5018908;28;21121;-76
2022/09/02 04:42:49;;;;;;;5.60;1.70;;;;;;;12.63;100.00;101661.38;5019773;28;20878;-77
2022/09/02 04:45:16;;;;;;;4.10;1.57;;;;;;;12.73;100.00;101660.44;5019848;28;20448;-77
2022/09/02 04:47:43;;;;;;;6.37;1.63;;;;;;;12.85;100.00;101669.03;5019612;28;20819;-77
2022/09/02 04:50:11;;;;;;;3.43;1.27;;;;;;;12.95;100.00;101662.66;5016497;28;20448;-77
2022/09/02 04:52:38;;;;;;;4.03;1.30;;;;;;;13.04;100.00;101654.66;5015430;28;20855;-77
2022/09/02 04:55:06;;;;;;;5.03;1.47;;;;;;;13.12;100.00;101662.19;5015505;28;20813;-76
2022/09/02 04:57:32;;;;;;;5.73;1.43;;;;;;;13.20;100.00;101664.25;5015608;28;20468;-76
2022/09/02 05:00:00;;;;;;;3.83;1.33;;;;;;;13.33;99.94;101668.19;5015428;28;20441;-76
2022/09/02 05:02:27;;;;;;;3.63;1.47;;;;;;;13.38;99.67;101658.06;5015011;28;20452;-77
2022/09/02 05:04:53;;;;;;;3.87;1.27;;;;;;;13.46;99.07;101656.59;5015562;28;20478;-76
2022/09/02 05:07:22;;;;;;;9.53;1.03;;;;;;;13.57;98.57;101665.41;5017746;28;20476;-77
2022/09/02 05:09:48;;;;;;;4.60;1.70;;;;;;;13.68;97.95;101660.59;5020946;28;20865;-77
2022/09/02 05:12:15;;;;;;;4.37;1.20;;;;;;;13.78;97.43;101665.91;5019768;28;20479;-77
2022/09/02 05:14:42;;;;;;;3.27;1.13;;;;;;;13.87;97.04;101664.94;5019540;28;20444;-76
2022/09/02 05:17:09;;;;;;;3.30;1.10;;;;;;;13.98;96.32;101667.50;5019004;28;20475;-77
2022/09/02 05:19:35;;;;;;;5.50;1.87;;;;;;;14.03;95.55;101667.41;5019270;28;20531;-77
2022/09/02 05:22:03;;;;;;;3.63;1.10;;;;;;;14.06;95.06;101673.09;5018634;28;20480;-76
2022/09/02 05:24:31;;;;;;;3.90;1.57;;;;;;;14.15;94.66;101684.13;5015964;28;20461;-76
2022/09/02 05:26:58;;;;;;;7.00;1.63;;;;;;;14.25;93.30;101681.22;5020715;28;20997;-77
2022/09/02 05:29:25;;;;;;;4.30;1.67;;;;;;;14.32;93.07;101684.38;5017808;28;20460;-77
2022/09/02 05:31:52;;;;;;;3.83;1.30;;;;;;;14.35;92.49;101683.78;5016497;28;20874;-76
2022/09/02 05:34:19;;;;;;;3.77;1.20;;;;;;;14.42;92.15;101680.66;5015553;28;20968;-71
2022/09/02 05:36:46;;;;;;;3.33;1.20;;;;;;;14.42;92.01;101682.56;5014414;28;21431;-74
2022/09/02 05:39:12;;;;;;;3.97;1.13;;;;;;;14.48;91.72;101681.38;5014720;28;20806;-74
2022/09/02 05:41:40;;;;;;;3.63;1.37;;;;;;;14.57;91.17;101685.06;5014636;28;20547;-74
2022/09/02 05:44:07;;;;;;;4.27;1.60;;;;;;;14.63;90.74;101681.13;5014610;28;20543;-74
2022/09/02 05:46:35;;;;;;;3.17;1.20;;;;;;;14.68;90.55;101681.03;5014534;28;20470;-74
2022/09/02 05:49:06;;;;;;;4.87;1.43;;;;;;;14.72;90.59;101676.59;5014477;28;20887;-74
2022/09/02 05:51:34;;;;;;;5.10;1.60;;;;;;;14.80;90.80;101681.34;5014372;28;20445;-74
2022/09/02 05:54:01;;;;;;;3.10;0.90;;;;;;;14.87;90.63;101680.94;5014655;28;20483;-71
2022/09/02 05:56:28;;;;;;;4.40;1.23;;;;;;;14.94;90.09;101677.81;5014587;28;20496;-71
2022/09/02 05:58:58;;;;;;;3.73;1.27;;;;;;;15.03;89.56;101681.44;5014202;28;20532;-73
2022/09/02 06:01:26;;;;;;;3.23;1.07;;;;;;;15.10;89.13;101687.31;5014442;28;20448;-72
2022/09/02 06:03:52;;;;;;;4.83;1.60;;;;;;;15.18;88.72;101678.38;5014214;28;20523;-75
2022/09/02 06:06:21;;;;;;;3.20;1.07;;;;;;;15.21;87.86;101682.44;5013992;28;21001;-75
2022/09/02 06:08:48;;;;;;;3.50;1.33;;;;;;;15.26;88.40;101685.88;5014130;28;20452;-77
2022/09/02 06:11:16;;;;;;;4.40;1.20;;;;;;;15.31;88.13;101690.41;5014326;28;20494;-75
2022/09/02 06:13:43;;;;;;;5.10;1.53;;;;;;;15.32;87.98;101692.84;5013029;28;20538;-76
2022/09/02 06:16:16;;;;;;;6.30;1.17;;;;;;;15.38;88.11;101683.41;5013970;28;20486;-75
2022/09/02 06:18:43;;;;;;;4.03;1.37;;;;;;;15.47;87.39;101679.97;5013910;28;20455;-75
2022/09/02 06:21:09;;;;;;;4.60;1.30;;;;;;;15.54;87.12;101686.63;5014128;28;20527;-75
2022/09/02 06:23:38;;;;;;;3.60;1.73;;;;;;;15.58;86.81;101687.63;5014204;28;20539;-76
2022/09/02 06:26:05;;;;;;;3.10;0.90;;;;;;;15.63;86.23;101683.97;5013521;28;20868;-75
2022/09/02 06:28:32;;;;;;;4.63;0.83;;;;;;;15.68;86.10;101689.34;5013529;28;20975;-74
2022/09/02 06:30:59;;;;;;;4.10;1.37;;;;;;;15.74;85.90;101674.44;5014210;28;20456;-75
2022/09/02 06:33:27;;;;;;;4.80;1.13;;;;;;;15.79;85.81;101689.91;5013438;28;20490;-75
2022/09/02 06:35:54;;;;;;;3.57;1.10;;;;;;;15.85;85.71;101689.50;5013532;28;21001;-74
2022/09/02 06:38:20;;;;;;;3.30;1.30;;;;;;;15.89;84.35;101686.94;5013806;28;20428;-75
2022/09/02 06:40:49;;;;;;;4.40;1.00;;;;;;;15.86;84.11;101690.31;5013683;28;20535;-75
2022/09/02 06:43:16;;;;;;;3.63;1.20;;;;;;;15.97;84.54;101686.19;5013658;28;20449;-75
2022/09/02 06:45:44;;;;;;;3.83;1.40;;;;;;;16.05;83.74;101682.72;5013576;28;20448;-75
2022/09/02 06:48:11;;;;;;;4.00;1.10;;;;;;;16.12;83.55;101680.38;5013669;28;20448;-75
2022/09/02 06:50:41;;;;;;;10.20;1.70;;;;;;;16.20;83.52;101689.72;5013542;28;20527;-75
2022/09/02 06:53:09;;;;;;;3.80;1.33;;;;;;;16.28;83.55;101685.44;5013397;28;20484;-75
2022/09/02 06:55:37;;;;;;;3.30;1.07;;;;;;;16.38;83.52;101682.47;5014255;28;20463;-75
2022/09/02 06:58:04;;;;;;;6.10;2.10;;;;;;;16.45;82.32;101690.22;5013575;28;20546;-73
2022/09/02 07:00:34;;;;;;;5.33;1.73;;;;;;;16.61;82.18;101685.97;5013727;28;20443;-76
2022/09/02 07:05:47;;;;;;;3.90;1.17;;;;;;;16.92;81.84;101687.88;5013441;28;20408;-75
2022/09/02 07:08:14;;;;;;;7.40;1.97;;;;;;;16.94;79.04;101685.63;5013768;28;20539;-77
2022/09/02 07:10:41;;;;;;;4.90;1.47;;;;;;;17.06;78.95;101680.38;5014160;28;20544;-76
2022/09/02 07:13:08;;;;;;;3.60;1.20;;;;;;;17.15;78.62;101684.72;5013665;28;20873;-77
2022/09/02 07:15:35;;;;;;;4.90;1.30;;;;;;;17.18;78.58;101694.25;5013594;28;20460;-73
2022/09/02 07:18:02;;;;;;;4.10;1.30;;;;;;;17.15;79.30;101684.72;5013150;28;20997;-75
2022/09/02 07:20:29;;;;;;;3.40;1.10;;;;;;;17.23;79.74;101688.63;5013350;28;20455;-73
2022/09/02 07:22:57;;;;;;;3.50;1.43;;;;;;;17.21;79.14;101685.38;5013283;28;20460;-76
2022/09/02 07:25:24;;;;;;;3.30;0.90;;;;;;;17.21;79.35;101688.13;5015867;28;20957;-76
2022/09/02 07:27:51;;;;;;;5.73;1.10;;;;;;;17.26;80.25;101687.97;5016976;28;20490;-75
2022/09/02 07:30:17;;;;;;;7.40;1.50;;;;;;;17.26;79.45;101690.69;5017166;28;20455;-75
2022/09/02 07:32:44;;;;;;;5.37;1.53;;;;;;;17.23;78.37;101688.63;5016763;28;20483;-75
2022/09/02 07:35:11;;;;;;;4.07;1.17;;;;;;;17.29;79.67;101684.59;5016995;28;20948;-75
2022/09/02 07:37:38;;;;;;;12.40;1.43;;;;;;;17.31;80.40;101695.22;5016795;28;20467;-75
2022/09/02 07:40:09;;;;;;;8.40;1.60;;;;;;;17.36;80.63;101692.34;5017149;28;20482;-75
2022/09/02 07:42:35;;;;;;;3.93;1.27;;;;;;;17.34;79.89;101692.66;5016748;28;20440;-76
2022/09/02 07:45:02;;;;;;;3.53;1.17;;;;;;;17.39;79.98;101692.50;5016865;28;20450;-76
2022/09/02 07:47:28;;;;;;;4.10;1.40;;;;;;;17.42;80.00;101693.00;5016819;28;20476;-76
2022/09/02 07:49:55;;;;;;;5.10;1.13;;;;;;;17.48;79.59;101695.25;5017613;28;20535;-75
2022/09/02 07:52:21;;;;;;;3.23;1.07;;;;;;;17.56;80.44;101696.41;5016712;28;20508;-75
2022/09/02 07:54:48;;;;;;;3.10;1.00;;;;;;;17.65;79.34;101686.25;5016545;28;20815;-75
2022/09/02 07:57:16;;;;;;;6.73;1.00;;;;;;;17.72;78.68;101697.53;5016837;28;20468;-75
2022/09/02 07:59:45;;;;;;;4.37;1.10;;;;;;;17.78;77.86;101690.78;5017275;28;20434;-75
2022/09/02 08:02:11;;;;;;;4.80;1.63;;;;;;;17.85;77.70;101696.59;5016558;28;20502;-75
2022/09/02 08:04:38;;;;;;;3.00;0.87;;;;;;;17.90;77.57;101690.97;5016444;28;20463;-74
2022/09/02 08:07:04;;;;;;;3.47;1.20;;;;;;;17.94;78.31;101695.81;5016537;28;20463;-75
2022/09/02 08:09:31;;;;;;;3.57;1.03;;;;;;;17.95;77.79;101689.19;5016292;28;21090;-74
2022/09/02 08:11:57;;;;;;;3.40;0.90;;;;;;;17.99;77.55;101692.91;5016706;28;20444;-75
2022/09/02 08:14:28;;;;;;;3.27;0.83;;;;;;;17.99;78.54;101692.91;5016382;28;20488;-75
2022/09/02 08:16:56;;;;;;;6.00;1.20;;;;;;;18.03;76.91;101691.91;5016359;28;21082;-75
2022/09/02 08:19:23;;;;;;;3.97;1.33;;;;;;;18.04;75.50;101688.03;5016251;28;20444;-75
2022/09/02 08:21:50;;;;;;;3.10;1.13;;;;;;;18.13;76.80;101699.00;5016071;28;20980;-75
2022/09/02 08:24:16;;;;;;;4.30;0.93;;;;;;;18.13;76.43;101688.03;5015978;28;20440;-76
2022/09/02 08:26:43;;;;;;;3.43;1.00;;;;;;;18.08;74.20;101694.50;5015979;28;20480;-75
2022/09/02 08:29:09;;;;;;;3.50;1.30;;;;;;;18.10;75.27;101697.69;5016230;28;20452;-75
2022/09/02 08:31:38;;;;;;;3.00;0.90;;;;;;;18.19;75.18;101697.69;5016066;28;20997;-75
2022/09/02 08:34:05;;;;;;;3.50;1.30;;;;;;;18.28;76.24;101687.53;5015776;28;20484;-75
2022/09/02 08:36:32;;;;;;;6.23;1.77;;;;;;;18.38;76.35;101689.13;5014573;28;20997;-75
2022/09/02 08:39:01;;;;;;;3.33;0.90;;;;;;;18.47;74.57;101691.84;5015879;28;20448;-76
2022/09/02 08:41:33;;;;;;;3.27;0.93;;;;;;;18.59;73.75;101702.91;5015864;28;20455;-75
2022/09/02 08:44:01;;;;;;;3.60;1.00;;;;;;;18.70;73.79;101684.19;5015948;28;20448;-75
2022/09/02 08:46:31;;;;;;;3.73;1.20;;;;;;;18.82;71.92;101685.13;5015351;28;20860;-75
2022/09/02 08:49:03;;;;;;;4.07;1.10;;;;;;;18.95;72.10;101687.94;5020439;28;20469;-75
2022/09/02 08:51:33;;;;;;;3.47;1.07;;;;;;;18.97;71.99;101683.75;5015742;28;20440;-75
2022/09/02 08:54:04;;;;;;;3.27;0.90;;;;;;;19.03;71.77;101687.09;5015495;28;20479;-76
2022/09/02 08:56:31;;;;;;;3.93;1.00;;;;;;;19.06;68.94;101683.69;5015792;28;20853;-76
2022/09/02 08:59:02;;;;;;;3.00;0.80;;;;;;;19.07;69.62;101679.81;5015522;28;20523;-75
2022/09/02 09:01:41;;;;;;;3.00;0.63;;;;;;;19.10;70.81;101673.66;5016012;28;20463;-76
2022/09/02 09:04:20;;;;;;;3.23;0.80;;;;;;;19.13;69.99;101668.31;5015352;28;20957;-75
2022/09/02 09:06:59;;;;;;;3.20;0.80;;;;;;;19.20;69.11;101666.97;5015333;28;20475;-73
2022/09/02 09:09:36;;;;;;;4.00;0.70;;;;;;;19.27;68.03;101661.78;5015489;28;20448;-75
2022/09/02 09:12:10;;;;;;;3.97;0.93;;;;;;;19.28;67.16;101661.44;5015520;28;20452;-73
2022/09/02 09:14:49;;;;;;;3.17;0.83;;;;;;;19.39;65.60;101665.41;5014934;28;20554;-74
2022/09/02 09:17:25;;;;;;;2.90;0.60;;;;;;;19.48;65.32;101667.25;5015073;28;20793;-73
2022/09/02 09:19:57;;;;;;;2.97;0.70;;;;;;;19.57;63.83;101663.31;5015385;28;20451;-73
2022/09/02 09:22:30;;;;;;;3.43;0.97;;;;;;;19.65;63.02;101667.16;5015173;28;20450;-74
2022/09/02 09:24:57;;;;;;;2.90;0.63;;;;;;;19.71;63.54;101659.53;5014957;28;20440;-73
2022/09/02 09:27:24;;;;;;;3.20;0.80;;;;;;;19.77;64.64;101653.47;5014617;28;20470;-73
2022/09/02 09:29:51;;;;;;;3.07;0.77;;;;;;;19.87;63.02;101653.03;5014758;28;20444;-73
2022/09/02 09:32:25;;;;;;;3.20;0.90;;;;;;;19.93;62.09;101653.66;5014765;28;20527;-74
2022/09/02 09:35:00;;;;;;;2.70;0.60;;;;;;;20.08;62.67;101653.00;5014655;28;20978;-75
2022/09/02 09:37:36;;;;;;;3.60;0.80;;;;;;;20.15;61.06;101655.22;5014628;28;20471;-75
2022/09/02 09:40:22;;;;;;;4.40;0.90;;;;;;;20.23;59.33;101646.06;5014872;28;20945;-74
2022/09/02 09:42:54;;;;;;;3.47;0.90;;;;;;;20.35;60.26;101651.59;5014777;28;20527;-74
2022/09/02 09:45:26;;;;;;;2.80;0.60;;;;;;;20.42;59.41;101651.84;5014435;28;20815;-71
2022/09/02 09:48:16;;;;;;;3.30;0.80;;;;;;;20.52;58.22;101645.09;5014453;28;20476;-75
2022/09/02 09:50:45;;;;;;;2.80;0.60;;;;;;;20.63;56.59;101637.22;5014735;28;20527;-72
2022/09/02 09:53:18;;;;;;;2.97;0.90;;;;;;;20.78;57.74;101646.72;5014581;28;20480;-75
2022/09/02 09:55:56;;;;;;;3.20;0.80;;;;;;;20.91;55.37;101651.09;5014413;28;20460;-75
2022/09/02 09:58:27;;;;;;;2.70;0.70;;;;;;;21.12;56.55;101639.94;5014551;28;20420;-75
2022/09/02 10:00:55;;;;;;;3.80;0.90;;;;;;;21.28;56.78;101635.28;5014623;28;20523;-76
2022/09/02 10:03:22;;;;;;;2.90;0.67;;;;;;;;;;5014226;28;20460;-75
2022/09/02 10:05:54;;;;;;;2.90;0.73;;;;;;;21.42;52.75;101638.50;5013888;28;20925;-74
2022/09/02 10:08:22;;;;;;;2.80;0.63;;;;;;;21.55;52.55;101627.44;5014307;28;20811;-75
2022/09/02 10:10:58;;;;;;;2.77;0.60;;;;;;;21.62;53.55;101642.25;5013880;28;20539;-75
2022/09/02 10:13:28;;;;;;;2.93;0.67;;;;;;;21.61;51.98;101632.38;5014105;28;20861;-75
2022/09/02 10:16:07;;;;;;;2.73;0.70;;;;;;;21.61;52.27;101631.56;5014066;28;20432;-74
2022/09/02 10:18:40;;;;;;;3.10;0.80;;;;;;;21.55;52.90;101641.22;5013963;28;20469;-73
2022/09/02 10:21:16;;;;;;;5.37;0.73;;;;;;;21.50;52.88;101620.22;5014144;28;20450;-75
2022/09/02 10:23:53;;;;;;;3.13;0.60;;;;;;;21.45;52.98;101628.75;5013916;28;20523;-75
2022/09/02 10:26:30;;;;;;;4.00;0.70;;;;;;;21.66;53.53;101623.03;5013885;28;20583;-75
2022/09/02 10:29:12;;;;;;;3.17;0.90;;;;;;;21.81;51.57;101621.47;5014767;28;20432;-77
2022/09/02 10:31:49;;;;;;;2.83;0.70;;;;;;;22.06;49.52;101622.97;5017611;28;20437;-73
2022/09/02 10:34:25;;;;;;;2.80;0.70;;;;;;;22.13;48.30;101611.31;5013544;28;20471;-74
2022/09/02 10:37:10;;;;;;;3.07;0.80;;;;;;;22.38;48.04;101610.00;5013583;28;20839;-76
2022/09/02 10:40:02;;;;;;;2.83;0.63;;;;;;;22.55;49.20;101608.03;5014012;28;20846;-75
2022/09/02 10:42:35;;;;;;;2.70;0.50;;;;;;;22.79;49.27;101607.81;5014153;28;20433;-74
2022/09/02 10:45:12;;;;;;;2.57;0.50;;;;;;;22.91;46.33;101607.75;5013939;28;20443;-75
2022/09/02 10:47:40;;;;;;;2.80;0.60;;;;;;;23.12;46.79;101618.47;5013390;28;20468;-75
2022/09/02 10:50:22;;;;;;;4.40;0.80;;;;;;;23.09;45.61;101610.91;5013406;28;20952;-75
2022/09/02 10:53:11;;;;;;;2.60;0.50;;;;;;;23.19;47.08;101617.81;5013871;28;20775;-76
2022/09/02 10:55:49;;;;;;;3.13;0.60;;;;;;;23.11;44.00;101619.66;5013358;28;20433;-75
2022/09/02 10:58:21;;;;;;;3.30;0.60;;;;;;;22.85;44.03;101609.16;5014315;28;20452;-75
2022/09/02 11:00:52;;;;;;;2.60;0.53;;;;;;;22.86;44.88;101605.22;5012772;28;20906;-77
2022/09/02 11:03:25;;;;;;;2.70;0.73;;;;;;;22.82;45.81;101604.34;5010162;28;20937;-76
2022/09/02 11:05:56;;;;;;;2.60;0.60;;;;;;;22.61;45.39;101607.41;5013632;28;20424;-76
2022/09/02 11:08:34;;;;;;;3.10;0.80;;;;;;;22.57;46.80;101598.22;5013536;28;20424;-76
2022/09/02 11:11:08;;;;;;;2.63;0.60;;;;;;;22.63;47.76;101593.25;5013661;28;20428;-76
2022/09/02 11:13:40;;;;;;;2.80;0.70;;;;;;;22.83;47.96;101594.09;5010313;28;20469;-76
2022/09/02 11:16:13;;;;;;;3.10;0.80;;;;;;;23.02;46.83;101591.41;5010408;28;20467;-76
2022/09/02 11:18:46;;;;;;;2.80;0.83;;;;;;;23.93;44.55;101587.31;5012103;28;20468;-75
2022/09/02 11:21:27;;;;;;;2.60;0.53;;;;;;;25.55;42.51;101596.91;5006299;28;20506;-76
2022/09/02 11:24:00;;;;;;;2.80;0.70;;;;;;;26.89;39.01;101599.31;5013521;28;20432;-76
2022/09/02 11:26:29;;;;;;;2.70;0.70;;;;;;;27.74;38.11;101606.50;5012928;28;21008;-76
2022/09/02 11:29:01;;;;;;;2.40;0.40;;;;;;;28.67;37.29;101603.78;5012324;28;20941;-77
2022/09/02 11:31:34;;;;;;;2.60;0.70;;;;;;;28.22;37.61;101608.94;5013485;28;20427;-76
2022/09/02 11:34:10;;;;;;;4.33;0.83;;;;;;;27.36;38.64;101607.94;5013500;28;20471;-76
2022/09/02 11:36:38;;;;;;;3.03;0.87;;;;;;;26.48;41.60;101601.44;5013123;28;20459;-75